sensor_id;sensor_type;location;lat;lon;timestamp;pressure;altitude;pressure_sealevel;temperature;humidity
80568;BME280;69922;45.656;25.586;2023-05-29T00:00:33;95184.23;;;13.88;69.06
80568;BME280;69922;45.656;25.586;2023-05-29T00:02:00;95187.84;;;13.86;69.28
80568;BME280;69922;45.656;25.586;2023-05-29T00:03:08;95182.71;;;13.83;69.75
80568;BME280;69922;45.656;25.586;2023-05-29T00:04:15;95188.13;;;13.81;70.12
80568;BME280;69922;45.656;25.586;2023-05-29T00:05:21;95186.08;;;13.78;70.47
80568;BME280;69922;45.656;25.586;2023-05-29T00:06:27;95186.96;;;13.76;70.41
80568;BME280;69922;45.656;25.586;2023-05-29T00:07:33;95188.41;;;13.75;71.08
80568;BME280;69922;45.656;25.586;2023-05-29T00:08:39;95191.03;;;13.74;70.90
80568;BME280;69922;45.656;25.586;2023-05-29T00:09:45;95191.48;;;13.73;70.74
80568;BME280;69922;45.656;25.586;2023-05-29T00:10:52;95186.55;;;13.73;70.71
80568;BME280;69922;45.656;25.586;2023-05-29T00:11:58;95190.53;;;13.73;71.24
80568;BME280;69922;45.656;25.586;2023-05-29T00:13:04;95186.03;;;13.72;71.48
80568;BME280;69922;45.656;25.586;2023-05-29T00:14:13;95188.30;;;13.69;71.55
80568;BME280;69922;45.656;25.586;2023-05-29T00:15:20;95186.35;;;13.67;71.36
80568;BME280;69922;45.656;25.586;2023-05-29T00:16:26;95189.73;;;13.65;71.19
80568;BME280;69922;45.656;25.586;2023-05-29T00:17:32;95190.53;;;13.63;71.05
80568;BME280;69922;45.656;25.586;2023-05-29T00:18:40;95187.27;;;13.62;71.00
80568;BME280;69922;45.656;25.586;2023-05-29T00:19:52;95190.52;;;13.60;71.15
80568;BME280;69922;45.656;25.586;2023-05-29T00:20:58;95185.29;;;13.59;71.07
80568;BME280;69922;45.656;25.586;2023-05-29T00:22:05;95184.65;;;13.58;71.05
80568;BME280;69922;45.656;25.586;2023-05-29T00:23:11;95187.00;;;13.58;71.32
80568;BME280;69922;45.656;25.586;2023-05-29T00:24:18;95188.23;;;13.58;71.17
80568;BME280;69922;45.656;25.586;2023-05-29T00:25:25;95188.88;;;13.58;71.23
80568;BME280;69922;45.656;25.586;2023-05-29T00:26:31;95188.88;;;13.58;71.32
80568;BME280;69922;45.656;25.586;2023-05-29T00:27:37;95191.32;;;13.59;71.31
80568;BME280;69922;45.656;25.586;2023-05-29T00:28:43;95188.24;;;13.58;71.35
80568;BME280;69922;45.656;25.586;2023-05-29T00:29:49;95189.13;;;13.56;71.37
80568;BME280;69922;45.656;25.586;2023-05-29T00:30:56;95190.71;;;13.54;71.35
80568;BME280;69922;45.656;25.586;2023-05-29T00:32:03;95191.18;;;13.52;71.30
80568;BME280;69922;45.656;25.586;2023-05-29T00:33:10;95192.46;;;13.50;71.30
80568;BME280;69922;45.656;25.586;2023-05-29T00:34:16;95191.06;;;13.48;71.44
80568;BME280;69922;45.656;25.586;2023-05-29T00:35:22;95191.39;;;13.46;71.39
80568;BME280;69922;45.656;25.586;2023-05-29T00:36:28;95190.89;;;13.43;71.46
80568;BME280;69922;45.656;25.586;2023-05-29T00:37:35;95195.04;;;13.43;71.62
80568;BME280;69922;45.656;25.586;2023-05-29T00:38:42;95196.41;;;13.42;71.70
80568;BME280;69922;45.656;25.586;2023-05-29T00:39:48;95195.29;;;13.41;71.86
80568;BME280;69922;45.656;25.586;2023-05-29T00:40:54;95194.25;;;13.41;71.88
80568;BME280;69922;45.656;25.586;2023-05-29T00:42:01;95194.44;;;13.41;71.89
80568;BME280;69922;45.656;25.586;2023-05-29T00:43:08;95191.37;;;13.41;71.81
80568;BME280;69922;45.656;25.586;2023-05-29T00:44:14;95190.75;;;13.42;71.76
80568;BME280;69922;45.656;25.586;2023-05-29T00:45:20;95191.48;;;13.42;71.82
80568;BME280;69922;45.656;25.586;2023-05-29T00:46:28;95194.07;;;13.42;71.77
80568;BME280;69922;45.656;25.586;2023-05-29T00:47:36;95194.20;;;13.42;71.70
80568;BME280;69922;45.656;25.586;2023-05-29T00:48:43;95194.55;;;13.42;71.67
80568;BME280;69922;45.656;25.586;2023-05-29T00:49:50;95197.13;;;13.42;71.67
80568;BME280;69922;45.656;25.586;2023-05-29T00:50:57;95196.10;;;13.42;71.71
80568;BME280;69922;45.656;25.586;2023-05-29T00:52:04;95193.84;;;13.42;71.82
80568;BME280;69922;45.656;25.586;2023-05-29T00:53:12;95194.77;;;13.42;71.69
80568;BME280;69922;45.656;25.586;2023-05-29T00:54:23;95189.70;;;13.43;71.78
80568;BME280;69922;45.656;25.586;2023-05-29T00:55:32;95190.73;;;13.43;71.70
80568;BME280;69922;45.656;25.586;2023-05-29T00:56:40;95190.60;;;13.44;71.66
80568;BME280;69922;45.656;25.586;2023-05-29T00:57:50;95194.30;;;13.44;71.64
80568;BME280;69922;45.656;25.586;2023-05-29T00:58:56;95190.34;;;13.43;71.63
80568;BME280;69922;45.656;25.586;2023-05-29T01:00:04;95194.13;;;13.44;71.62
80568;BME280;69922;45.656;25.586;2023-05-29T01:01:15;95188.92;;;13.43;71.73
80568;BME280;69922;45.656;25.586;2023-05-29T01:02:22;95192.36;;;13.42;71.82
80568;BME280;69922;45.656;25.586;2023-05-29T01:03:29;95190.45;;;13.42;71.90
80568;BME280;69922;45.656;25.586;2023-05-29T01:04:36;95192.70;;;13.41;72.00
80568;BME280;69922;45.656;25.586;2023-05-29T01:05:44;95191.83;;;13.38;72.11
80568;BME280;69922;45.656;25.586;2023-05-29T01:06:52;95194.45;;;13.37;72.10
80568;BME280;69922;45.656;25.586;2023-05-29T01:07:58;95192.27;;;13.36;72.04
80568;BME280;69922;45.656;25.586;2023-05-29T01:09:06;95195.40;;;13.35;72.03
80568;BME280;69922;45.656;25.586;2023-05-29T01:10:12;95192.81;;;13.35;72.00
80568;BME280;69922;45.656;25.586;2023-05-29T01:11:25;95190.53;;;13.35;71.94
80568;BME280;69922;45.656;25.586;2023-05-29T01:12:40;95187.82;;;13.36;72.04
80568;BME280;69922;45.656;25.586;2023-05-29T01:13:51;95187.41;;;13.35;71.99
80568;BME280;69922;45.656;25.586;2023-05-29T01:15:16;95185.85;;;13.36;72.07
80568;BME280;69922;45.656;25.586;2023-05-29T01:16:33;95192.50;;;13.35;71.97
80568;BME280;69922;45.656;25.586;2023-05-29T01:17:51;95191.18;;;13.35;72.00
80568;BME280;69922;45.656;25.586;2023-05-29T01:19:09;95190.77;;;13.38;72.08
80568;BME280;69922;45.656;25.586;2023-05-29T01:20:26;95193.95;;;13.39;72.17
80568;BME280;69922;45.656;25.586;2023-05-29T01:21:47;95195.64;;;13.40;72.23
80568;BME280;69922;45.656;25.586;2023-05-29T01:24:49;95190.79;;;13.43;72.20
80568;BME280;69922;45.656;25.586;2023-05-29T01:26:10;95187.04;;;13.45;72.18
80568;BME280;69922;45.656;25.586;2023-05-29T01:27:19;95186.17;;;13.47;72.04
80568;BME280;69922;45.656;25.586;2023-05-29T01:28:30;95185.23;;;13.50;71.94
80568;BME280;69922;45.656;25.586;2023-05-29T01:29:40;95184.61;;;13.52;71.86
80568;BME280;69922;45.656;25.586;2023-05-29T01:30:48;95185.27;;;13.55;71.90
80568;BME280;69922;45.656;25.586;2023-05-29T01:31:55;95184.80;;;13.58;71.84
80568;BME280;69922;45.656;25.586;2023-05-29T01:33:02;95189.37;;;13.61;71.76
80568;BME280;69922;45.656;25.586;2023-05-29T01:34:09;95183.84;;;13.63;71.63
80568;BME280;69922;45.656;25.586;2023-05-29T01:35:15;95183.38;;;13.65;71.62
80568;BME280;69922;45.656;25.586;2023-05-29T01:36:22;95181.09;;;13.67;71.41
80568;BME280;69922;45.656;25.586;2023-05-29T01:37:28;95183.81;;;13.68;71.46
80568;BME280;69922;45.656;25.586;2023-05-29T01:38:35;95180.95;;;13.70;71.32
80568;BME280;69922;45.656;25.586;2023-05-29T01:39:41;95181.48;;;13.71;71.32
80568;BME280;69922;45.656;25.586;2023-05-29T01:40:49;95182.04;;;13.72;71.19
80568;BME280;69922;45.656;25.586;2023-05-29T01:41:56;95182.55;;;13.73;71.20
80568;BME280;69922;45.656;25.586;2023-05-29T01:43:03;95177.94;;;13.74;71.14
80568;BME280;69922;45.656;25.586;2023-05-29T01:44:09;95179.77;;;13.74;71.03
80568;BME280;69922;45.656;25.586;2023-05-29T01:45:17;95182.74;;;13.76;71.04
80568;BME280;69922;45.656;25.586;2023-05-29T01:46:25;95179.56;;;13.77;71.03
80568;BME280;69922;45.656;25.586;2023-05-29T01:47:32;95180.11;;;13.78;70.81
80568;BME280;69922;45.656;25.586;2023-05-29T01:48:38;95180.33;;;13.79;70.68
80568;BME280;69922;45.656;25.586;2023-05-29T01:49:45;95177.04;;;13.80;70.63
80568;BME280;69922;45.656;25.586;2023-05-29T01:50:52;95178.10;;;13.81;70.72
80568;BME280;69922;45.656;25.586;2023-05-29T01:52:00;95181.13;;;13.80;70.59
80568;BME280;69922;45.656;25.586;2023-05-29T01:53:06;95180.42;;;13.80;70.69
80568;BME280;69922;45.656;25.586;2023-05-29T01:54:12;95183.17;;;13.80;70.64
80568;BME280;69922;45.656;25.586;2023-05-29T01:55:20;95180.69;;;13.81;70.64
80568;BME280;69922;45.656;25.586;2023-05-29T01:56:28;95179.44;;;13.81;70.52
80568;BME280;69922;45.656;25.586;2023-05-29T01:57:38;95180.40;;;13.82;70.46
80568;BME280;69922;45.656;25.586;2023-05-29T01:58:48;95181.66;;;13.82;70.28
80568;BME280;69922;45.656;25.586;2023-05-29T01:59:56;95179.17;;;13.82;70.13
80568;BME280;69922;45.656;25.586;2023-05-29T02:01:03;95180.19;;;13.84;70.11
80568;BME280;69922;45.656;25.586;2023-05-29T02:02:12;95176.95;;;13.86;69.92
80568;BME280;69922;45.656;25.586;2023-05-29T02:03:19;95171.91;;;13.88;70.02
80568;BME280;69922;45.656;25.586;2023-05-29T02:04:25;95177.90;;;13.92;70.02
80568;BME280;69922;45.656;25.586;2023-05-29T02:05:31;95178.55;;;13.95;69.96
80568;BME280;69922;45.656;25.586;2023-05-29T02:06:37;95180.34;;;13.97;69.90
80568;BME280;69922;45.656;25.586;2023-05-29T02:07:44;95183.30;;;13.99;69.77
80568;BME280;69922;45.656;25.586;2023-05-29T02:08:52;95182.62;;;13.99;69.74
80568;BME280;69922;45.656;25.586;2023-05-29T02:09:58;95180.21;;;14.00;69.69
80568;BME280;69922;45.656;25.586;2023-05-29T02:11:06;95180.23;;;14.01;69.32
80568;BME280;69922;45.656;25.586;2023-05-29T02:12:12;95184.23;;;14.01;69.17
80568;BME280;69922;45.656;25.586;2023-05-29T02:13:18;95188.02;;;14.01;68.93
80568;BME280;69922;45.656;25.586;2023-05-29T02:14:25;95185.53;;;14.02;69.04
80568;BME280;69922;45.656;25.586;2023-05-29T02:15:31;95185.45;;;14.02;68.99
80568;BME280;69922;45.656;25.586;2023-05-29T02:16:38;95185.45;;;14.02;68.96
80568;BME280;69922;45.656;25.586;2023-05-29T02:17:47;95184.70;;;14.03;69.01
80568;BME280;69922;45.656;25.586;2023-05-29T02:18:53;95182.78;;;14.04;69.06
80568;BME280;69922;45.656;25.586;2023-05-29T02:19:59;95183.23;;;14.06;68.77
80568;BME280;69922;45.656;25.586;2023-05-29T02:21:06;95182.84;;;14.09;68.79
80568;BME280;69922;45.656;25.586;2023-05-29T02:22:13;95185.01;;;14.10;68.87
80568;BME280;69922;45.656;25.586;2023-05-29T02:23:19;95186.09;;;14.12;68.97
80568;BME280;69922;45.656;25.586;2023-05-29T02:24:26;95190.05;;;14.13;68.98
80568;BME280;69922;45.656;25.586;2023-05-29T02:25:33;95186.38;;;14.14;68.75
80568;BME280;69922;45.656;25.586;2023-05-29T02:26:40;95186.33;;;14.15;68.75
80568;BME280;69922;45.656;25.586;2023-05-29T02:27:48;95190.47;;;14.14;68.78
80568;BME280;69922;45.656;25.586;2023-05-29T02:28:55;95188.27;;;14.14;68.88
80568;BME280;69922;45.656;25.586;2023-05-29T02:30:00;95189.67;;;14.14;69.09
80568;BME280;69922;45.656;25.586;2023-05-29T02:31:07;95189.21;;;14.14;69.55
80568;BME280;69922;45.656;25.586;2023-05-29T02:32:13;95191.27;;;14.12;69.81
80568;BME280;69922;45.656;25.586;2023-05-29T02:33:19;95187.91;;;14.10;69.97
80568;BME280;69922;45.656;25.586;2023-05-29T02:34:26;95186.40;;;14.10;70.05
80568;BME280;69922;45.656;25.586;2023-05-29T02:35:33;95191.59;;;14.10;70.27
80568;BME280;69922;45.656;25.586;2023-05-29T02:36:39;95185.66;;;14.11;70.17
80568;BME280;69922;45.656;25.586;2023-05-29T02:37:45;95189.21;;;14.12;70.07
80568;BME280;69922;45.656;25.586;2023-05-29T02:38:53;95187.45;;;14.13;70.17
80568;BME280;69922;45.656;25.586;2023-05-29T02:39:59;95190.06;;;14.14;70.07
80568;BME280;69922;45.656;25.586;2023-05-29T02:41:06;95190.42;;;14.15;70.00
80568;BME280;69922;45.656;25.586;2023-05-29T02:42:13;95192.97;;;14.16;69.96
80568;BME280;69922;45.656;25.586;2023-05-29T02:43:21;95192.54;;;14.17;69.95
80568;BME280;69922;45.656;25.586;2023-05-29T02:44:27;95190.28;;;14.18;69.85
80568;BME280;69922;45.656;25.586;2023-05-29T02:45:34;95193.30;;;14.20;69.84
80568;BME280;69922;45.656;25.586;2023-05-29T02:46:40;95197.79;;;14.20;69.69
80568;BME280;69922;45.656;25.586;2023-05-29T02:47:46;95194.44;;;14.20;69.86
80568;BME280;69922;45.656;25.586;2023-05-29T02:48:53;95195.36;;;14.20;70.11
80568;BME280;69922;45.656;25.586;2023-05-29T02:49:58;95193.98;;;14.19;70.46
80568;BME280;69922;45.656;25.586;2023-05-29T02:51:05;95196.84;;;14.17;70.42
80568;BME280;69922;45.656;25.586;2023-05-29T02:52:11;95198.66;;;14.15;70.48
80568;BME280;69922;45.656;25.586;2023-05-29T02:53:18;95196.75;;;14.14;70.57
80568;BME280;69922;45.656;25.586;2023-05-29T02:54:24;95197.28;;;14.13;70.63
80568;BME280;69922;45.656;25.586;2023-05-29T02:55:31;95197.10;;;14.13;70.63
80568;BME280;69922;45.656;25.586;2023-05-29T02:56:41;95196.17;;;14.11;70.61
80568;BME280;69922;45.656;25.586;2023-05-29T02:57:47;95198.35;;;14.10;70.60
80568;BME280;69922;45.656;25.586;2023-05-29T02:58:56;95196.34;;;14.09;70.64
80568;BME280;69922;45.656;25.586;2023-05-29T03:00:03;95193.34;;;14.06;70.60
80568;BME280;69922;45.656;25.586;2023-05-29T03:01:13;95193.33;;;14.03;70.66
80568;BME280;69922;45.656;25.586;2023-05-29T03:02:19;95194.91;;;14.01;70.65
80568;BME280;69922;45.656;25.586;2023-05-29T03:03:25;95194.15;;;13.99;70.64
80568;BME280;69922;45.656;25.586;2023-05-29T03:04:32;95197.27;;;13.98;70.65
80568;BME280;69922;45.656;25.586;2023-05-29T03:05:38;95195.18;;;13.97;70.76
80568;BME280;69922;45.656;25.586;2023-05-29T03:06:44;95193.73;;;13.95;70.87
80568;BME280;69922;45.656;25.586;2023-05-29T03:07:51;95196.16;;;13.94;71.00
80568;BME280;69922;45.656;25.586;2023-05-29T03:08:57;95197.09;;;13.91;70.84
80568;BME280;69922;45.656;25.586;2023-05-29T03:10:06;95201.63;;;13.91;70.80
80568;BME280;69922;45.656;25.586;2023-05-29T03:11:14;95203.59;;;13.91;70.88
80568;BME280;69922;45.656;25.586;2023-05-29T03:12:21;95201.25;;;13.91;70.91
80568;BME280;69922;45.656;25.586;2023-05-29T03:13:28;95204.13;;;13.90;70.95
80568;BME280;69922;45.656;25.586;2023-05-29T03:14:34;95201.27;;;13.89;70.90
80568;BME280;69922;45.656;25.586;2023-05-29T03:15:41;95207.67;;;13.88;70.91
80568;BME280;69922;45.656;25.586;2023-05-29T03:16:49;95205.33;;;13.88;70.96
80568;BME280;69922;45.656;25.586;2023-05-29T03:17:55;95207.16;;;13.90;71.03
80568;BME280;69922;45.656;25.586;2023-05-29T03:19:01;95205.00;;;13.90;70.98
80568;BME280;69922;45.656;25.586;2023-05-29T03:20:11;95209.77;;;13.93;70.87
80568;BME280;69922;45.656;25.586;2023-05-29T03:21:18;95208.92;;;13.93;70.84
80568;BME280;69922;45.656;25.586;2023-05-29T03:22:25;95209.02;;;13.93;70.85
80568;BME280;69922;45.656;25.586;2023-05-29T03:23:31;95208.20;;;13.95;71.05
80568;BME280;69922;45.656;25.586;2023-05-29T03:24:37;95211.98;;;13.95;70.97
80568;BME280;69922;45.656;25.586;2023-05-29T03:25:44;95211.16;;;13.97;70.87
80568;BME280;69922;45.656;25.586;2023-05-29T03:26:50;95212.61;;;13.98;70.96
80568;BME280;69922;45.656;25.586;2023-05-29T03:27:57;95213.67;;;13.99;70.88
80568;BME280;69922;45.656;25.586;2023-05-29T03:29:03;95212.52;;;14.00;70.85
80568;BME280;69922;45.656;25.586;2023-05-29T03:30:12;95218.63;;;14.02;70.98
80568;BME280;69922;45.656;25.586;2023-05-29T03:31:19;95217.71;;;14.03;71.08
80568;BME280;69922;45.656;25.586;2023-05-29T03:32:25;95220.27;;;14.02;70.92
80568;BME280;69922;45.656;25.586;2023-05-29T03:33:32;95215.40;;;14.02;71.02
80568;BME280;69922;45.656;25.586;2023-05-29T03:34:38;95217.69;;;14.02;71.13
80568;BME280;69922;45.656;25.586;2023-05-29T03:35:46;95220.90;;;14.04;71.08
80568;BME280;69922;45.656;25.586;2023-05-29T03:36:53;95221.19;;;14.06;71.24
80568;BME280;69922;45.656;25.586;2023-05-29T03:38:00;95224.08;;;14.08;71.25
80568;BME280;69922;45.656;25.586;2023-05-29T03:39:06;95221.16;;;14.10;71.24
80568;BME280;69922;45.656;25.586;2023-05-29T03:40:15;95215.13;;;14.12;71.20
80568;BME280;69922;45.656;25.586;2023-05-29T03:41:21;95216.84;;;14.14;71.20
80568;BME280;69922;45.656;25.586;2023-05-29T03:42:27;95216.63;;;14.15;70.99
80568;BME280;69922;45.656;25.586;2023-05-29T03:43:33;95217.71;;;14.17;71.14
80568;BME280;69922;45.656;25.586;2023-05-29T03:44:40;95221.21;;;14.19;70.96
80568;BME280;69922;45.656;25.586;2023-05-29T03:45:46;95220.05;;;14.22;70.88
80568;BME280;69922;45.656;25.586;2023-05-29T03:46:52;95220.04;;;14.24;70.64
80568;BME280;69922;45.656;25.586;2023-05-29T03:47:59;95223.18;;;14.25;70.58
80568;BME280;69922;45.656;25.586;2023-05-29T03:49:05;95220.22;;;14.26;70.50
80568;BME280;69922;45.656;25.586;2023-05-29T03:50:16;95223.90;;;14.28;70.48
80568;BME280;69922;45.656;25.586;2023-05-29T03:51:23;95223.59;;;14.31;70.41
80568;BME280;69922;45.656;25.586;2023-05-29T03:52:29;95222.05;;;14.34;70.24
80568;BME280;69922;45.656;25.586;2023-05-29T03:53:35;95223.96;;;14.38;70.22
80568;BME280;69922;45.656;25.586;2023-05-29T03:54:42;95222.92;;;14.42;70.22
80568;BME280;69922;45.656;25.586;2023-05-29T03:55:48;95227.14;;;14.47;70.34
80568;BME280;69922;45.656;25.586;2023-05-29T03:56:54;95232.73;;;14.53;70.81
80568;BME280;69922;45.656;25.586;2023-05-29T03:58:00;95230.92;;;14.60;70.70
80568;BME280;69922;45.656;25.586;2023-05-29T03:59:06;95226.80;;;14.66;70.20
80568;BME280;69922;45.656;25.586;2023-05-29T04:00:15;95231.77;;;14.70;69.94
80568;BME280;69922;45.656;25.586;2023-05-29T04:01:22;95234.80;;;14.74;69.86
80568;BME280;69922;45.656;25.586;2023-05-29T04:02:28;95234.77;;;14.78;69.97
80568;BME280;69922;45.656;25.586;2023-05-29T04:03:34;95233.42;;;14.83;70.22
80568;BME280;69922;45.656;25.586;2023-05-29T04:04:41;95236.38;;;14.90;70.32
80568;BME280;69922;45.656;25.586;2023-05-29T04:05:48;95233.52;;;14.97;69.79
80568;BME280;69922;45.656;25.586;2023-05-29T04:06:54;95232.45;;;15.01;69.05
80568;BME280;69922;45.656;25.586;2023-05-29T04:08:00;95232.24;;;15.05;69.35
80568;BME280;69922;45.656;25.586;2023-05-29T04:09:20;95238.77;;;15.08;69.20
80568;BME280;69922;45.656;25.586;2023-05-29T04:10:26;95236.70;;;15.12;69.60
80568;BME280;69922;45.656;25.586;2023-05-29T04:11:33;95231.44;;;15.18;69.30
80568;BME280;69922;45.656;25.586;2023-05-29T04:12:42;95231.07;;;15.24;69.07
80568;BME280;69922;45.656;25.586;2023-05-29T04:13:49;95232.98;;;15.29;68.65
80568;BME280;69922;45.656;25.586;2023-05-29T04:14:55;95233.39;;;15.32;68.55
80568;BME280;69922;45.656;25.586;2023-05-29T04:16:01;95235.21;;;15.35;68.63
80568;BME280;69922;45.656;25.586;2023-05-29T04:17:08;95236.08;;;15.42;68.95
80568;BME280;69922;45.656;25.586;2023-05-29T04:18:14;95236.21;;;15.50;68.57
80568;BME280;69922;45.656;25.586;2023-05-29T04:19:21;95233.58;;;15.58;68.25
80568;BME280;69922;45.656;25.586;2023-05-29T04:20:27;95238.80;;;15.65;68.56
80568;BME280;69922;45.656;25.586;2023-05-29T04:21:34;95239.35;;;15.77;68.37
80568;BME280;69922;45.656;25.586;2023-05-29T04:22:40;95240.48;;;15.90;67.96
80568;BME280;69922;45.656;25.586;2023-05-29T04:23:47;95242.52;;;16.02;67.46
80568;BME280;69922;45.656;25.586;2023-05-29T04:24:55;95239.77;;;16.15;67.31
80568;BME280;69922;45.656;25.586;2023-05-29T04:26:01;95242.70;;;16.25;66.75
80568;BME280;69922;45.656;25.586;2023-05-29T04:27:08;95240.69;;;16.33;66.41
80568;BME280;69922;45.656;25.586;2023-05-29T04:28:14;95240.16;;;16.41;65.77
80568;BME280;69922;45.656;25.586;2023-05-29T04:29:21;95239.70;;;16.47;65.84
80568;BME280;69922;45.656;25.586;2023-05-29T04:30:27;95238.80;;;16.56;65.60
80568;BME280;69922;45.656;25.586;2023-05-29T04:31:34;95238.35;;;16.67;65.72
80568;BME280;69922;45.656;25.586;2023-05-29T04:32:43;95240.77;;;16.80;65.03
80568;BME280;69922;45.656;25.586;2023-05-29T04:33:49;95238.55;;;16.91;64.63
80568;BME280;69922;45.656;25.586;2023-05-29T04:34:55;95239.16;;;16.97;64.03
80568;BME280;69922;45.656;25.586;2023-05-29T04:36:02;95236.15;;;16.99;63.67
80568;BME280;69922;45.656;25.586;2023-05-29T04:37:10;95239.95;;;17.04;63.75
80568;BME280;69922;45.656;25.586;2023-05-29T04:38:16;95238.36;;;17.11;63.86
80568;BME280;69922;45.656;25.586;2023-05-29T04:39:22;95246.07;;;17.22;63.75
80568;BME280;69922;45.656;25.586;2023-05-29T04:40:28;95244.58;;;17.34;63.59
80568;BME280;69922;45.656;25.586;2023-05-29T04:41:35;95243.85;;;17.47;63.33
80568;BME280;69922;45.656;25.586;2023-05-29T04:42:43;95244.70;;;17.58;62.49
80568;BME280;69922;45.656;25.586;2023-05-29T04:43:53;95245.91;;;17.68;62.48
80568;BME280;69922;45.656;25.586;2023-05-29T04:45:01;95249.23;;;17.77;62.22
80568;BME280;69922;45.656;25.586;2023-05-29T04:46:11;95250.33;;;17.85;62.08
80568;BME280;69922;45.656;25.586;2023-05-29T04:47:19;95252.79;;;17.95;61.88
80568;BME280;69922;45.656;25.586;2023-05-29T04:48:26;95251.44;;;18.03;61.64
80568;BME280;69922;45.656;25.586;2023-05-29T04:49:32;95250.49;;;18.13;61.13
80568;BME280;69922;45.656;25.586;2023-05-29T04:50:39;95250.92;;;18.19;60.44
80568;BME280;69922;45.656;25.586;2023-05-29T04:51:46;95250.14;;;18.25;60.46
80568;BME280;69922;45.656;25.586;2023-05-29T04:52:52;95251.41;;;18.30;59.91
80568;BME280;69922;45.656;25.586;2023-05-29T04:53:59;95252.42;;;18.33;59.76
80568;BME280;69922;45.656;25.586;2023-05-29T04:55:08;95252.23;;;18.37;59.34
80568;BME280;69922;45.656;25.586;2023-05-29T04:56:15;95252.61;;;18.39;58.98
80568;BME280;69922;45.656;25.586;2023-05-29T04:57:22;95252.85;;;18.38;58.85
80568;BME280;69922;45.656;25.586;2023-05-29T04:58:28;95253.23;;;18.42;58.69
80568;BME280;69922;45.656;25.586;2023-05-29T04:59:35;95257.60;;;18.44;58.64
80568;BME280;69922;45.656;25.586;2023-05-29T05:00:41;95257.80;;;18.46;58.65
80568;BME280;69922;45.656;25.586;2023-05-29T05:01:49;95259.61;;;18.51;58.75
80568;BME280;69922;45.656;25.586;2023-05-29T05:02:56;95259.12;;;18.55;58.46
80568;BME280;69922;45.656;25.586;2023-05-29T05:04:02;95263.95;;;18.57;58.02
80568;BME280;69922;45.656;25.586;2023-05-29T05:05:09;95263.48;;;18.57;57.59
80568;BME280;69922;45.656;25.586;2023-05-29T05:06:16;95263.17;;;18.56;57.79
80568;BME280;69922;45.656;25.586;2023-05-29T05:07:23;95262.04;;;18.59;58.01
80568;BME280;69922;45.656;25.586;2023-05-29T05:08:29;95265.16;;;18.67;58.05
80568;BME280;69922;45.656;25.586;2023-05-29T05:09:36;95265.20;;;18.75;57.91
80568;BME280;69922;45.656;25.586;2023-05-29T05:10:42;95265.46;;;18.82;57.55
80568;BME280;69922;45.656;25.586;2023-05-29T05:11:48;95265.05;;;18.87;57.31
80568;BME280;69922;45.656;25.586;2023-05-29T05:12:54;95264.25;;;18.91;57.04
80568;BME280;69922;45.656;25.586;2023-05-29T05:14:00;95270.29;;;18.93;56.80
80568;BME280;69922;45.656;25.586;2023-05-29T05:15:10;95267.00;;;18.96;57.13
80568;BME280;69922;45.656;25.586;2023-05-29T05:16:17;95263.84;;;19.01;56.92
80568;BME280;69922;45.656;25.586;2023-05-29T05:17:24;95267.05;;;19.05;56.54
80568;BME280;69922;45.656;25.586;2023-05-29T05:18:31;95266.91;;;19.06;56.44
80568;BME280;69922;45.656;25.586;2023-05-29T05:19:38;95268.54;;;19.09;56.06
80568;BME280;69922;45.656;25.586;2023-05-29T05:20:45;95263.33;;;19.09;55.92
80568;BME280;69922;45.656;25.586;2023-05-29T05:21:51;95270.71;;;19.12;56.01
80568;BME280;69922;45.656;25.586;2023-05-29T05:22:59;95264.91;;;19.15;55.89
80568;BME280;69922;45.656;25.586;2023-05-29T05:24:06;95269.27;;;19.22;55.93
80568;BME280;69922;45.656;25.586;2023-05-29T05:25:12;95272.02;;;19.27;55.25
80568;BME280;69922;45.656;25.586;2023-05-29T05:26:18;95269.94;;;19.25;55.07
80568;BME280;69922;45.656;25.586;2023-05-29T05:27:25;95270.98;;;19.26;54.95
80568;BME280;69922;45.656;25.586;2023-05-29T05:28:31;95276.20;;;19.26;54.68
80568;BME280;69922;45.656;25.586;2023-05-29T05:29:37;95279.57;;;19.24;54.82
80568;BME280;69922;45.656;25.586;2023-05-29T05:30:44;95275.00;;;19.25;54.99
80568;BME280;69922;45.656;25.586;2023-05-29T05:31:50;95276.02;;;19.28;54.88
80568;BME280;69922;45.656;25.586;2023-05-29T05:32:56;95273.84;;;19.31;54.71
80568;BME280;69922;45.656;25.586;2023-05-29T05:34:03;95277.27;;;19.33;54.46
80568;BME280;69922;45.656;25.586;2023-05-29T05:35:10;95273.57;;;19.34;54.80
80568;BME280;69922;45.656;25.586;2023-05-29T05:36:17;95272.53;;;19.40;54.74
80568;BME280;69922;45.656;25.586;2023-05-29T05:37:23;95273.35;;;19.43;54.42
80568;BME280;69922;45.656;25.586;2023-05-29T05:38:29;95275.77;;;19.46;54.59
80568;BME280;69922;45.656;25.586;2023-05-29T05:39:35;95272.91;;;19.52;54.58
80568;BME280;69922;45.656;25.586;2023-05-29T05:40:47;95274.91;;;19.60;54.50
80568;BME280;69922;45.656;25.586;2023-05-29T05:41:53;95273.15;;;19.65;54.22
80568;BME280;69922;45.656;25.586;2023-05-29T05:42:59;95272.77;;;19.73;54.14
80568;BME280;69922;45.656;25.586;2023-05-29T05:44:06;95273.75;;;19.83;53.94
80568;BME280;69922;45.656;25.586;2023-05-29T05:45:14;95267.97;;;19.89;53.27
80568;BME280;69922;45.656;25.586;2023-05-29T05:46:20;95273.38;;;19.93;53.00
80568;BME280;69922;45.656;25.586;2023-05-29T05:47:26;95267.34;;;19.98;53.31
80568;BME280;69922;45.656;25.586;2023-05-29T05:48:33;95267.27;;;20.06;53.38
80568;BME280;69922;45.656;25.586;2023-05-29T05:49:40;95265.89;;;20.17;53.02
80568;BME280;69922;45.656;25.586;2023-05-29T05:50:46;95267.33;;;20.26;52.49
80568;BME280;69922;45.656;25.586;2023-05-29T05:51:53;95268.19;;;20.25;52.15
80568;BME280;69922;45.656;25.586;2023-05-29T05:52:58;95266.69;;;20.27;52.44
80568;BME280;69922;45.656;25.586;2023-05-29T05:54:07;95267.09;;;20.35;51.91